Time;durP1;ratioP1;P1;durP2;ratioP2;P2;SDS_P1;SDS_P2;PMS_P1;PMS_P2;Temp;Humidity;BMP_temperature;BMP_pressure;BME280_temperature;BME280_humidity;BME280_pressure;Samples;Min_cycle;Max_cycle;Signal;HPM_P1;HPM_P2
2022/03/15 00:00:03;;;;;;;259.10;94.93;;;;;;;1.63;51.37;96668.63;4899934;29;20504;-78
2022/03/15 00:02:29;;;;;;;320.95;113.43;;;;;;;1.57;51.80;96673.44;4914191;29;20087;-77
2022/03/15 00:04:55;;;;;;;402.58;132.07;;;;;;;1.44;52.58;96673.66;4914639;29;20421;-78
2022/03/15 00:07:21;;;;;;;371.23;130.77;;;;;;;1.35;52.53;96670.13;4913922;29;20086;-78
2022/03/15 00:09:47;;;;;;;270.05;99.22;;;;;;;1.35;52.94;96679.56;4928645;23;20420;-78
2022/03/15 00:12:14;;;;;;;230.13;90.75;;;;;;;1.29;54.05;96675.75;4916368;29;20036;-78
2022/03/15 00:14:41;;;;;;;185.38;77.57;;;;;;;1.24;53.33;96682.22;4914824;29;20080;-78
2022/03/15 00:17:06;;;;;;;147.77;65.35;;;;;;;1.23;53.79;96681.41;4914305;29;20024;-78
2022/03/15 00:19:32;;;;;;;156.07;66.40;;;;;;;1.25;53.72;96668.47;4917129;29;20516;-78
2022/03/15 00:21:57;;;;;;;174.95;73.63;;;;;;;1.28;52.96;96673.31;4916483;29;20050;-78
2022/03/15 00:24:23;;;;;;;171.88;76.30;;;;;;;1.29;52.95;96662.13;4914731;29;20468;-77
2022/03/15 00:26:49;;;;;;;160.90;73.45;;;;;;;1.27;53.56;96666.56;4915147;29;20032;-78
2022/03/15 00:29:17;;;;;;;172.55;77.18;;;;;;;1.29;53.62;96665.50;4915634;29;20036;-78
2022/03/15 00:31:44;;;;;;;161.52;69.40;;;;;;;1.26;53.50;96664.97;4882858;29;20472;-78
2022/03/15 00:34:10;;;;;;;148.05;62.03;;;;;;;1.22;53.57;96658.47;4923174;23;20056;-78
2022/03/15 00:36:37;;;;;;;155.90;69.68;;;;;;;1.24;54.19;96657.41;4895401;29;20089;-78
2022/03/15 00:39:04;;;;;;;155.32;69.18;;;;;;;1.22;53.84;96663.59;4895822;29;20506;-77
2022/03/15 00:41:29;;;;;;;158.93;70.05;;;;;;;1.14;54.41;96662.50;4895067;29;20065;-78
2022/03/15 00:43:55;;;;;;;139.68;64.38;;;;;;;1.18;54.09;96658.75;4899500;29;20075;-78
2022/03/15 00:46:20;;;;;;;167.82;69.00;;;;;;;1.19;53.52;96654.41;4889990;29;20031;-77
2022/03/15 00:48:45;;;;;;;170.38;74.07;;;;;;;1.15;53.94;96658.19;4895623;29;20041;-78
2022/03/15 00:51:11;;;;;;;179.75;80.80;;;;;;;1.03;55.12;96656.63;4896458;29;20039;-78
2022/03/15 00:53:36;;;;;;;146.45;61.88;;;;;;;1.07;53.91;96643.44;4912611;23;20035;-78
2022/03/15 00:56:02;;;;;;;130.45;61.70;;;;;;;1.03;54.26;96644.63;4914907;29;20104;-77
2022/03/15 00:58:28;;;;;;;131.30;58.85;;;;;;;1.04;53.45;96646.25;4913730;29;20028;-78
2022/03/15 01:00:54;;;;;;;110.95;49.50;;;;;;;1.07;53.46;96635.75;4893088;29;20099;-77
2022/03/15 01:03:19;;;;;;;148.48;59.60;;;;;;;1.08;53.91;96629.69;4905624;29;20029;-78
2022/03/15 01:05:45;;;;;;;133.95;60.30;;;;;;;1.08;53.37;96634.81;4908244;29;20036;-78
2022/03/15 01:08:10;;;;;;;134.40;57.45;;;;;;;1.10;53.26;96632.94;4910654;29;20028;-78
2022/03/15 01:10:36;;;;;;;149.13;65.03;;;;;;;1.09;54.35;96633.06;4904461;29;20052;-77
2022/03/15 01:13:01;;;;;;;188.07;81.47;;;;;;;1.08;53.70;96632.25;4898721;29;20133;-77
2022/03/15 01:15:27;;;;;;;220.40;94.22;;;;;;;1.02;53.94;96632.78;4889222;29;20131;-78
2022/03/15 01:17:53;;;;;;;208.02;86.03;;;;;;;0.96;54.03;96643.50;4927197;29;20145;-78
2022/03/15 01:20:18;;;;;;;208.75;93.80;;;;;;;0.98;54.04;96635.72;4888028;29;20037;-78
2022/03/15 01:22:44;;;;;;;202.93;87.80;;;;;;;0.88;54.17;96635.66;4904678;29;20108;-78
2022/03/15 01:25:10;;;;;;;194.93;82.63;;;;;;;0.85;53.83;96630.81;4902180;29;20611;-78
2022/03/15 01:27:36;;;;;;;184.18;73.22;;;;;;;0.87;54.09;96639.97;4903172;29;20792;-78
2022/03/15 01:30:01;;;;;;;183.88;74.50;;;;;;;0.76;53.52;96641.78;4872938;29;20036;-78
2022/03/15 01:32:27;;;;;;;207.27;82.60;;;;;;;0.75;54.11;96640.16;4905611;29;20064;-78
2022/03/15 01:34:52;;;;;;;217.10;81.32;;;;;;;0.68;54.10;96644.19;4900694;29;20036;-78
2022/03/15 01:37:17;;;;;;;261.92;86.60;;;;;;;0.62;54.63;96647.22;4905534;29;20480;-78
2022/03/15 01:39:43;;;;;;;316.27;94.57;;;;;;;0.63;55.10;96641.97;4904221;29;20623;-78
2022/03/15 01:42:09;;;;;;;236.77;77.93;;;;;;;0.64;54.65;96650.47;4902972;29;20048;-78
2022/03/15 01:44:35;;;;;;;182.13;65.82;;;;;;;0.53;54.86;96657.28;4926837;29;20044;-78
2022/03/15 01:47:00;;;;;;;168.40;62.35;;;;;;;0.49;55.01;96655.94;4904701;29;20079;-78
2022/03/15 01:49:26;;;;;;;171.98;61.17;;;;;;;0.46;55.00;96653.59;4904240;29;20107;-78
2022/03/15 01:51:51;;;;;;;208.43;71.45;;;;;;;0.36;55.34;96660.41;4888434;29;20039;-78
2022/03/15 01:54:17;;;;;;;352.20;107.93;;;;;;;0.36;55.01;96655.28;4887759;29;20037;-78
2022/03/15 01:56:43;;;;;;;379.70;125.63;;;;;;;0.36;55.24;96665.53;4903584;29;20043;-78
2022/03/15 01:59:13;;;;;;;267.85;92.95;;;;;;;0.29;55.40;96675.41;4904888;29;20072;-78
2022/03/15 02:01:39;;;;;;;318.38;104.80;;;;;;;0.31;54.92;96665.06;4903963;29;20051;-77
2022/03/15 02:04:05;;;;;;;178.18;64.90;;;;;;;0.24;55.06;96658.81;4887777;29;20496;-78
2022/03/15 02:06:33;;;;;;;169.35;59.22;;;;;;;0.17;56.21;96650.84;4887369;29;20040;-78
2022/03/15 02:08:58;;;;;;;195.15;68.85;;;;;;;0.24;55.88;96651.94;4888025;29;20044;-78
2022/03/15 02:11:27;;;;;;;277.10;92.82;;;;;;;0.27;55.40;96643.22;4904030;29;20032;-78
2022/03/15 02:13:53;;;;;;;264.35;89.82;;;;;;;0.26;55.23;96657.75;4902289;29;20029;-77
2022/03/15 02:16:18;;;;;;;216.40;72.97;;;;;;;0.19;55.68;96650.72;4894629;29;20087;-78
2022/03/15 02:18:44;;;;;;;214.52;73.68;;;;;;;0.21;55.99;96656.50;4905119;29;20043;-78
2022/03/15 02:21:10;;;;;;;198.25;70.57;;;;;;;0.19;55.94;96643.03;4903355;29;20036;-78
2022/03/15 02:23:35;;;;;;;164.10;60.72;;;;;;;0.20;55.93;96639.53;4888577;29;20036;-78
2022/03/15 02:26:01;;;;;;;120.35;51.10;;;;;;;0.20;55.70;96632.69;4905220;29;20047;-78
2022/03/15 02:28:26;;;;;;;116.82;51.33;;;;;;;0.16;55.95;96623.63;4904579;29;20040;-77
2022/03/15 02:30:52;;;;;;;104.65;53.00;;;;;;;0.19;56.48;96625.13;4904024;29;20044;-77
2022/03/15 02:33:17;;;;;;;115.60;53.22;;;;;;;0.19;56.42;96623.38;4902590;29;20028;-77
2022/03/15 02:35:43;;;;;;;123.43;59.85;;;;;;;0.24;56.03;96621.25;4895344;29;20420;-77
2022/03/15 02:38:08;;;;;;;120.13;59.67;;;;;;;0.27;55.41;96615.06;4886474;29;20040;-77
2022/03/15 02:40:34;;;;;;;122.07;58.45;;;;;;;0.18;55.90;96619.19;4904555;29;20028;-77
2022/03/15 02:42:59;;;;;;;138.32;57.00;;;;;;;0.21;55.80;96626.63;4888718;29;20047;-77
2022/03/15 02:45:27;;;;;;;138.00;64.15;;;;;;;0.16;55.86;96630.47;4902158;29;20468;-77
2022/03/15 02:47:52;;;;;;;109.93;51.85;;;;;;;0.24;56.41;96635.78;4904610;29;20500;-78
2022/03/15 02:50:19;;;;;;;141.82;63.95;;;;;;;0.18;55.29;96631.19;4887262;29;20127;-77
2022/03/15 02:52:44;;;;;;;125.00;54.80;;;;;;;0.17;55.40;96637.22;4886198;29;20119;-77
2022/03/15 02:55:10;;;;;;;115.38;48.85;;;;;;;0.10;55.69;96638.63;4901886;29;20033;-77
2022/03/15 02:57:35;;;;;;;136.60;56.45;;;;;;;0.02;56.35;96641.00;4886964;29;20035;-77
2022/03/15 03:00:01;;;;;;;133.40;56.83;;;;;;;0.02;56.59;96635.91;4902678;29;20392;-77
2022/03/15 03:02:27;;;;;;;122.70;54.60;;;;;;;0.05;55.91;96633.09;4902897;29;20500;-77
2022/03/15 03:04:52;;;;;;;128.75;54.15;;;;;;;0.02;55.82;96631.59;4902090;29;20032;-78
2022/03/15 03:07:19;;;;;;;115.22;51.95;;;;;;;0.05;56.14;96625.41;4887151;29;20044;-78
2022/03/15 03:09:44;;;;;;;105.07;47.97;;;;;;;0.12;55.43;96626.53;4904627;29;20123;-78
2022/03/15 03:12:15;;;;;;;118.85;51.88;;;;;;;0.11;55.78;96623.16;4894504;29;20083;-78
2022/03/15 03:14:40;;;;;;;126.57;53.90;;;;;;;0.09;56.17;96626.78;4905740;29;20563;-78
2022/03/15 03:17:06;;;;;;;114.90;51.40;;;;;;;0.05;55.69;96622.84;4889823;29;20040;-78
2022/03/15 03:19:33;;;;;;;140.98;59.95;;;;;;;0.01;55.69;96613.81;4886226;29;20039;-78
2022/03/15 03:21:59;;;;;;;143.70;67.05;;;;;;;0.02;55.34;96607.75;4902164;29;20555;-77
2022/03/15 03:24:25;;;;;;;132.38;62.53;;;;;;;0.04;55.88;96608.44;4902508;29;20032;-77
2022/03/15 03:26:50;;;;;;;144.32;74.63;;;;;;;0.03;55.79;96609.38;4902759;29;20043;-77
2022/03/15 03:29:16;;;;;;;148.38;81.05;;;;;;;-0.03;56.10;96608.91;4927608;23;20052;-77
2022/03/15 03:31:42;;;;;;;122.18;67.10;;;;;;;-0.10;56.33;96597.56;4912845;29;20032;-77
2022/03/15 03:34:08;;;;;;;137.30;71.38;;;;;;;-0.16;56.54;96598.06;4904650;29;20048;-77
2022/03/15 03:36:36;;;;;;;131.85;73.43;;;;;;;-0.16;57.04;96603.19;4912826;29;20028;-77
2022/03/15 03:39:04;;;;;;;134.07;73.35;;;;;;;-0.09;56.61;96606.84;4896090;29;20108;-77
2022/03/15 03:41:30;;;;;;;180.65;92.70;;;;;;;-0.19;56.40;96608.50;4903593;29;20047;-77
2022/03/15 03:43:55;;;;;;;160.25;76.80;;;;;;;-0.23;56.47;96624.22;4911460;29;20040;-77
2022/03/15 03:46:21;;;;;;;129.00;63.30;;;;;;;-0.28;56.39;96614.38;4911461;29;20036;-77
2022/03/15 03:48:46;;;;;;;85.53;41.72;;;;;;;-0.29;56.96;96625.53;4910398;29;20056;-78
2022/03/15 03:51:13;;;;;;;54.20;25.52;;;;;;;-0.26;56.67;96625.28;4912497;29;20032;-77
2022/03/15 03:53:39;;;;;;;49.97;24.65;;;;;;;-0.24;55.81;96628.53;4912200;29;20055;-77
2022/03/15 03:56:04;;;;;;;60.88;24.50;;;;;;;-0.39;56.12;96642.50;4912870;29;20036;-77
2022/03/15 03:58:30;;;;;;;57.10;24.45;;;;;;;-0.48;56.83;96644.03;4897932;29;20024;-77
2022/03/15 04:00:55;;;;;;;53.28;24.90;;;;;;;-0.60;56.90;96644.97;4898899;29;20461;-77
2022/03/15 04:03:22;;;;;;;54.97;24.13;;;;;;;-0.63;57.38;96651.13;4898446;29;20046;-77
2022/03/15 04:05:49;;;;;;;48.83;22.65;;;;;;;-0.63;57.38;96663.09;4914776;29;20039;-77
2022/03/15 04:08:14;;;;;;;52.00;22.65;;;;;;;-0.62;57.08;96657.88;4914301;29;20092;-77
2022/03/15 04:10:40;;;;;;;40.58;20.92;;;;;;;-0.56;57.16;96665.97;4914367;29;20032;-77
2022/03/15 04:13:07;;;;;;;36.33;20.58;;;;;;;-0.54;56.68;96664.94;4914304;29;20042;-77
2022/03/15 04:15:33;;;;;;;38.67;21.15;;;;;;;-0.53;56.68;96655.53;4914192;29;20056;-77
2022/03/15 04:17:58;;;;;;;37.90;19.77;;;;;;;-0.47;56.50;96665.28;4914229;29;20032;-77
2022/03/15 04:20:24;;;;;;;34.40;18.88;;;;;;;-0.45;56.29;96665.97;4914015;29;20485;-77
2022/03/15 04:22:49;;;;;;;36.53;20.38;;;;;;;-0.36;56.32;96672.91;4906480;29;20083;-77
2022/03/15 04:25:14;;;;;;;35.63;19.60;;;;;;;-0.31;56.62;96675.97;4913771;29;20036;-77
2022/03/15 04:27:40;;;;;;;33.67;18.08;;;;;;;-0.27;56.22;96679.88;4914286;29;20091;-77
2022/03/15 04:30:06;;;;;;;32.40;19.27;;;;;;;-0.22;56.11;96680.34;4899069;29;20040;-77
2022/03/15 04:32:31;;;;;;;38.60;19.98;;;;;;;-0.24;56.02;96674.53;4914650;29;20042;-77
2022/03/15 04:34:57;;;;;;;61.03;29.25;;;;;;;-0.29;55.63;96679.19;4923268;29;20036;-77
2022/03/15 04:37:23;;;;;;;64.30;30.30;;;;;;;-0.27;56.23;96669.66;4914803;29;20040;-77
2022/03/15 04:39:49;;;;;;;65.70;30.48;;;;;;;-0.21;55.63;96666.63;4905039;29;20047;-77
2022/03/15 04:42:14;;;;;;;66.13;30.42;;;;;;;-0.21;55.60;96670.91;4914630;29;20071;-77
2022/03/15 04:44:40;;;;;;;63.28;32.53;;;;;;;-0.26;56.22;96667.91;4899767;29;20040;-78
2022/03/15 04:47:05;;;;;;;53.30;28.35;;;;;;;-0.29;56.63;96668.16;4900130;29;20232;-78
2022/03/15 04:49:31;;;;;;;61.05;29.63;;;;;;;-0.18;56.94;96674.03;4915863;29;20416;-78
2022/03/15 04:51:57;;;;;;;52.17;26.98;;;;;;;-0.05;56.57;96677.28;4883328;29;20063;-78
2022/03/15 04:54:22;;;;;;;74.93;37.60;;;;;;;0.22;55.85;96668.38;4900339;29;20496;-78
2022/03/15 04:56:48;;;;;;;91.38;43.88;;;;;;;0.44;54.82;96668.25;4915963;29;20036;-78
2022/03/15 04:59:13;;;;;;;78.15;42.50;;;;;;;0.72;54.88;96668.59;4899919;29;20457;-80
2022/03/15 05:01:39;;;;;;;77.05;43.45;;;;;;;0.94;54.05;96665.88;4906139;29;20496;-77
2022/03/15 05:04:04;;;;;;;88.25;46.58;;;;;;;1.17;53.24;96666.56;4889773;29;20071;-77
2022/03/15 05:06:30;;;;;;;97.65;51.97;;;;;;;1.41;53.12;96671.34;4914546;29;20092;-77
2022/03/15 05:08:55;;;;;;;120.20;60.97;;;;;;;1.73;52.02;96669.44;4913119;29;20095;-77
2022/03/15 05:11:21;;;;;;;116.55;57.17;;;;;;;2.16;50.50;96676.00;4914488;29;20036;-76
2022/03/15 05:13:47;;;;;;;126.85;64.22;;;;;;;2.60;49.94;96672.09;4913160;29;20047;-77
2022/03/15 05:16:17;;;;;;;142.52;73.03;;;;;;;3.29;47.74;96671.00;4915078;29;20028;-77
2022/03/15 05:18:46;;;;;;;141.18;74.32;;;;;;;3.71;45.76;96671.34;4897983;29;20024;-76
2022/03/15 05:21:16;;;;;;;141.18;73.07;;;;;;;3.84;46.25;96673.56;4915442;29;20059;-76
2022/03/15 05:23:42;;;;;;;103.60;56.00;;;;;;;4.27;45.04;96674.66;4898402;29;20492;-76
2022/03/15 05:26:08;;;;;;;118.18;58.15;;;;;;;4.76;44.46;96668.97;4898202;29;20118;-76
2022/03/15 05:28:33;;;;;;;108.22;53.42;;;;;;;5.29;42.77;96665.44;4914296;29;20500;-76
2022/03/15 05:30:58;;;;;;;99.93;48.45;;;;;;;5.72;42.03;96671.44;4914139;29;20036;-76
2022/03/15 05:33:24;;;;;;;75.13;38.63;;;;;;;6.06;40.09;96666.25;4889162;29;20985;-76
2022/03/15 05:35:50;;;;;;;57.97;30.73;;;;;;;6.09;39.80;96665.94;4897299;29;20028;-76
2022/03/15 05:38:16;;;;;;;63.67;35.10;;;;;;;6.07;40.59;96672.22;4883879;29;20036;-74
2022/03/15 05:40:42;;;;;;;65.63;35.53;;;;;;;5.93;39.37;96669.28;4912687;29;20075;-76
2022/03/15 05:43:07;;;;;;;66.93;34.92;;;;;;;5.89;40.15;96670.53;4896575;29;20047;-74
2022/03/15 05:45:34;;;;;;;69.35;35.63;;;;;;;5.93;40.27;96668.47;4913002;29;20047;-75
2022/03/15 05:47:59;;;;;;;63.70;34.53;;;;;;;6.05;39.19;96671.56;4897174;29;20040;-75
2022/03/15 05:50:25;;;;;;;53.58;31.35;;;;;;;6.22;39.65;96673.22;4912134;29;20039;-74
2022/03/15 05:52:50;;;;;;;64.82;30.45;;;;;;;6.18;39.62;96666.72;4912499;29;20032;-75
2022/03/15 05:55:16;;;;;;;67.55;32.67;;;;;;;6.23;39.34;96672.25;4911028;29;20044;-75
2022/03/15 05:57:42;;;;;;;98.20;42.47;;;;;;;6.30;39.09;96670.63;4912706;29;20024;-75
2022/03/15 06:00:09;;;;;;;99.05;44.38;;;;;;;6.21;39.80;96671.59;4911727;29;20123;-78
2022/03/15 06:02:35;;;;;;;118.13;54.83;;;;;;;6.14;40.02;96671.41;4911188;29;20036;-77
2022/03/15 06:05:01;;;;;;;102.57;50.83;;;;;;;6.15;39.82;96667.06;4879918;29;20035;-75
2022/03/15 06:07:28;;;;;;;95.15;44.05;;;;;;;6.44;40.19;96672.59;4894988;29;20032;-76
2022/03/15 06:09:53;;;;;;;90.75;40.78;;;;;;;6.78;39.59;96679.41;4927128;29;20412;-76
2022/03/15 06:12:20;;;;;;;62.72;32.90;;;;;;;7.11;39.35;96680.97;4908636;29;20119;-75
2022/03/15 06:14:46;;;;;;;75.35;38.13;;;;;;;7.48;38.27;96679.59;4928691;29;20028;-78
2022/03/15 06:17:11;;;;;;;71.13;38.80;;;;;;;7.80;38.06;96676.88;4912952;29;20035;-78
2022/03/15 06:19:36;;;;;;;60.30;32.38;;;;;;;8.17;37.09;96674.63;4894121;29;20488;-77
2022/03/15 06:22:02;;;;;;;69.68;35.22;;;;;;;8.57;35.70;96673.59;4912593;29;20028;-77
2022/03/15 06:24:28;;;;;;;63.80;32.50;;;;;;;8.92;35.17;96672.97;4912409;29;20035;-78
2022/03/15 06:26:53;;;;;;;54.72;30.17;;;;;;;9.14;34.07;96671.31;4912415;29;20032;-77
2022/03/15 06:29:19;;;;;;;54.53;28.58;;;;;;;9.33;34.14;96672.59;4912521;29;20032;-78
2022/03/15 06:31:44;;;;;;;55.53;30.00;;;;;;;9.49;34.44;96664.63;4902977;29;20032;-77
2022/03/15 06:34:10;;;;;;;54.22;27.70;;;;;;;9.70;33.81;96666.50;4912193;29;20050;-78
2022/03/15 06:36:36;;;;;;;53.40;27.52;;;;;;;9.88;33.57;96671.31;4911683;29;20537;-78
2022/03/15 06:39:03;;;;;;;49.83;26.27;;;;;;;10.18;32.92;96679.88;4910872;29;20190;-77
2022/03/15 06:41:30;;;;;;;54.80;27.83;;;;;;;10.35;32.12;96677.88;4911479;29;20564;-78
2022/03/15 06:43:55;;;;;;;57.90;26.75;;;;;;;10.31;31.27;96680.03;4887504;29;20044;-77
2022/03/15 06:46:21;;;;;;;50.30;25.95;;;;;;;10.20;31.34;96683.88;4912438;29;20048;-77
2022/03/15 06:48:46;;;;;;;49.63;29.10;;;;;;;10.16;31.50;96681.84;4911083;29;20420;-79
2022/03/15 06:51:12;;;;;;;60.80;25.63;;;;;;;10.22;32.44;96678.53;4910860;29;20033;-77
2022/03/15 06:53:38;;;;;;;53.75;26.85;;;;;;;10.34;32.04;96681.47;4895319;29;20564;-77
2022/03/15 06:56:04;;;;;;;59.55;28.83;;;;;;;10.47;32.23;96679.00;4912162;29;20119;-77
2022/03/15 06:58:29;;;;;;;61.22;27.98;;;;;;;10.64;32.24;96679.56;4894453;29;20036;-77
2022/03/15 07:00:55;;;;;;;54.83;29.75;;;;;;;10.68;31.75;96676.41;4912091;29;20135;-77
2022/03/15 07:03:21;;;;;;;47.83;27.88;;;;;;;10.66;31.77;96681.00;4912417;29;20084;-77
2022/03/15 07:05:46;;;;;;;55.33;27.85;;;;;;;10.69;31.89;96683.22;4895791;29;20044;-78
2022/03/15 07:08:12;;;;;;;51.00;27.20;;;;;;;10.76;30.72;96678.88;4897734;29;20087;-78
2022/03/15 07:10:37;;;;;;;46.95;26.67;;;;;;;10.80;32.04;96685.31;4895129;29;20456;-77
2022/03/15 07:13:03;;;;;;;50.88;24.48;;;;;;;10.79;30.47;96691.53;4912111;29;20482;-77
2022/03/15 07:15:28;;;;;;;51.72;26.23;;;;;;;10.65;30.66;96681.97;4903022;29;20046;-77
2022/03/15 07:17:55;;;;;;;46.58;25.05;;;;;;;10.53;31.10;96679.06;4894852;29;20111;-78
2022/03/15 07:20:21;;;;;;;47.70;26.73;;;;;;;10.51;31.08;96680.25;4902585;29;20091;-77
2022/03/15 07:22:47;;;;;;;51.25;27.95;;;;;;;10.53;30.70;96675.66;4902961;29;20040;-77
2022/03/15 07:25:13;;;;;;;60.55;26.17;;;;;;;10.68;30.81;96673.81;4911730;29;20032;-77
2022/03/15 07:27:38;;;;;;;52.92;25.33;;;;;;;10.73;30.20;96674.03;4894979;29;20052;-78
2022/03/15 07:30:04;;;;;;;52.92;25.75;;;;;;;10.70;30.36;96669.22;4918582;29;20040;-77
2022/03/15 07:32:30;;;;;;;50.60;24.98;;;;;;;10.63;30.54;96677.97;4914433;29;20044;-78
2022/03/15 07:34:55;;;;;;;49.33;24.75;;;;;;;10.56;30.24;96677.88;4929243;29;20040;-77
2022/03/15 07:37:21;;;;;;;47.42;25.15;;;;;;;10.51;30.92;96675.03;4913873;29;20032;-77
2022/03/15 07:39:46;;;;;;;45.35;24.08;;;;;;;10.44;30.57;96679.38;4897877;29;20546;-77
2022/03/15 07:42:12;;;;;;;47.03;22.90;;;;;;;10.42;30.48;96681.38;4913675;29;20040;-77
2022/03/15 07:44:42;;;;;;;49.92;25.08;;;;;;;10.50;30.52;96679.44;4882066;29;20479;-77
2022/03/15 07:47:07;;;;;;;51.28;24.85;;;;;;;10.64;30.05;96669.16;4912551;29;20070;-77
2022/03/15 07:49:36;;;;;;;56.42;26.98;;;;;;;10.65;31.04;96668.97;4913824;29;20464;-77
2022/03/15 07:52:01;;;;;;;44.47;25.20;;;;;;;10.71;30.45;96670.81;4914506;29;20496;-77
2022/03/15 07:54:27;;;;;;;41.88;23.95;;;;;;;10.73;30.06;96668.84;4913408;29;20074;-77
2022/03/15 07:56:52;;;;;;;52.88;24.63;;;;;;;10.73;30.32;96673.22;4906772;29;20043;-76
2022/03/15 07:59:18;;;;;;;58.75;26.33;;;;;;;10.74;30.63;96672.25;4914183;29;20896;-77
2022/03/15 08:01:44;;;;;;;49.70;25.23;;;;;;;10.79;30.61;96662.91;4915980;29;20123;-76
2022/03/15 08:04:14;;;;;;;41.00;24.83;;;;;;;10.79;30.10;96662.91;4913251;29;20635;-76
2022/03/15 08:06:40;;;;;;;53.97;25.13;;;;;;;10.79;30.17;96668.09;4885303;29;20057;-78
2022/03/15 08:09:05;;;;;;;54.38;23.98;;;;;;;10.79;29.93;96657.69;4883663;29;20041;-76
2022/03/15 08:11:31;;;;;;;49.13;24.85;;;;;;;10.93;29.67;96655.22;4875966;29;20041;-75
2022/03/15 08:13:57;;;;;;;46.33;25.00;;;;;;;11.02;29.98;96651.44;4860282;29;20512;-76
2022/03/15 08:16:22;;;;;;;54.00;25.08;;;;;;;11.01;29.76;96652.44;4877232;29;20417;-77
2022/03/15 08:18:51;;;;;;;56.35;25.52;;;;;;;11.04;29.66;96654.66;4877005;29;20040;-75
2022/03/15 08:21:17;;;;;;;45.53;25.08;;;;;;;11.05;29.47;96653.66;4875759;29;20049;-75
2022/03/15 08:23:43;;;;;;;47.03;26.67;;;;;;;11.02;29.45;96646.25;4875842;29;20097;-77
2022/03/15 08:26:09;;;;;;;58.67;26.60;;;;;;;11.01;29.23;96649.84;4877173;29;20029;-74
2022/03/15 08:28:34;;;;;;;66.78;27.52;;;;;;;10.97;29.97;96648.63;4875358;29;20416;-74
2022/03/15 08:31:01;;;;;;;50.95;26.05;;;;;;;10.98;29.56;96645.81;4859618;29;20513;-75
2022/03/15 08:33:26;;;;;;;63.42;26.70;;;;;;;11.05;30.03;96640.66;4874666;29;20068;-77
2022/03/15 08:35:52;;;;;;;48.97;26.42;;;;;;;11.17;29.83;96649.56;4859448;29;20037;-74
2022/03/15 08:38:18;;;;;;;60.63;25.52;;;;;;;11.25;29.81;96644.22;4875059;29;20516;-75
2022/03/15 08:40:43;;;;;;;50.97;27.23;;;;;;;11.23;29.37;96641.00;4859663;29;20041;-74
2022/03/15 08:43:09;;;;;;;59.20;26.00;;;;;;;11.15;29.51;96635.94;4858909;29;20040;-74
2022/03/15 08:45:34;;;;;;;50.05;26.13;;;;;;;11.13;29.14;96632.72;4876470;29;20045;-75
2022/03/15 08:48:00;;;;;;;53.72;25.40;;;;;;;11.20;29.06;96628.34;4875262;29;20428;-75
2022/03/15 08:50:26;;;;;;;72.78;26.38;;;;;;;11.15;29.25;96630.72;4876459;29;20037;-74
2022/03/15 08:52:52;;;;;;;74.43;28.13;;;;;;;11.21;29.59;96626.53;4859743;29;20033;-73
2022/03/15 08:55:18;;;;;;;60.88;27.98;;;;;;;11.08;29.36;96617.69;4875055;29;20063;-74
2022/03/15 08:57:43;;;;;;;71.78;29.23;;;;;;;11.14;29.08;96618.69;4874995;29;20053;-74
2022/03/15 09:00:10;;;;;;;52.03;27.15;;;;;;;11.10;29.21;96622.69;4875041;29;20116;-74
2022/03/15 09:02:35;;;;;;;65.03;30.77;;;;;;;11.10;29.68;96613.06;4874844;29;20509;-74
2022/03/15 09:05:01;;;;;;;52.72;29.48;;;;;;;11.18;29.74;96619.13;4875668;29;20040;-74
2022/03/15 09:07:27;;;;;;;58.35;28.80;;;;;;;11.26;30.19;96613.78;4874581;29;20036;-74
2022/03/15 09:09:53;;;;;;;52.92;27.75;;;;;;;11.32;29.28;96611.19;4874335;29;20067;-74
2022/03/15 09:12:19;;;;;;;53.55;28.40;;;;;;;11.38;29.54;96607.00;4873226;29;20068;-74
2022/03/15 09:14:44;;;;;;;43.65;26.65;;;;;;;11.42;29.92;96600.44;4875712;29;20505;-74
2022/03/15 09:17:10;;;;;;;54.28;28.35;;;;;;;11.49;29.67;96605.66;4875793;29;20060;-74
2022/03/15 09:19:35;;;;;;;57.55;28.25;;;;;;;11.58;29.44;96599.31;4875570;29;20041;-74
2022/03/15 09:22:03;;;;;;;65.50;28.98;;;;;;;11.61;29.24;96599.72;4875441;29;20081;-74
2022/03/15 09:24:33;;;;;;;71.32;31.02;;;;;;;11.68;29.00;96589.31;4875676;29;20025;-74
2022/03/15 09:26:58;;;;;;;92.97;48.97;;;;;;;11.75;29.32;96584.94;4874197;29;20064;-74
2022/03/15 09:29:24;;;;;;;60.03;28.05;;;;;;;11.69;28.53;96585.72;4874461;29;20040;-74
2022/03/15 09:31:49;;;;;;;60.42;27.85;;;;;;;11.62;28.26;96584.88;4874006;29;20432;-74
2022/03/15 09:34:17;;;;;;;51.35;27.75;;;;;;;11.53;28.37;96583.44;4874173;29;20176;-74
2022/03/15 09:36:43;;;;;;;72.10;28.02;;;;;;;11.50;28.70;96578.63;4874987;29;20044;-76
2022/03/15 09:39:09;;;;;;;56.97;28.30;;;;;;;11.48;28.36;96576.22;4875204;29;20025;-75
2022/03/15 09:41:35;;;;;;;60.80;26.75;;;;;;;11.55;28.77;96574.47;4875496;29;20076;-75
2022/03/15 09:44:01;;;;;;;51.78;28.33;;;;;;;11.61;28.55;96562.44;4858851;29;20045;-77
2022/03/15 09:46:26;;;;;;;55.45;27.42;;;;;;;11.60;29.01;96564.25;4859236;29;20041;-75
2022/03/15 09:48:53;;;;;;;58.55;28.08;;;;;;;11.63;28.14;96560.44;4874062;29;20093;-73
2022/03/15 09:51:18;;;;;;;57.13;27.38;;;;;;;11.65;28.65;96561.84;4874197;29;20029;-75
2022/03/15 09:53:44;;;;;;;57.80;27.65;;;;;;;11.67;28.35;96556.44;4873852;29;20430;-74
2022/03/15 09:56:10;;;;;;;59.22;26.52;;;;;;;11.65;29.31;96554.03;4874055;29;20044;-75
2022/03/15 09:58:36;;;;;;;49.85;26.73;;;;;;;11.68;28.70;96550.22;4875747;29;20040;-75
2022/03/15 10:01:01;;;;;;;58.97;27.10;;;;;;;11.74;27.97;96552.06;4873841;29;20079;-75
2022/03/15 10:03:27;;;;;;;60.28;26.90;;;;;;;11.78;28.09;96544.66;4873796;29;20048;-77
2022/03/15 10:05:52;;;;;;;40.38;22.98;;;;;;;11.85;27.54;96537.66;4843627;29;20025;-74
2022/03/15 10:08:18;;;;;;;51.15;22.55;;;;;;;11.86;26.94;96529.66;4858609;29;20045;-75
2022/03/15 10:10:45;;;;;;;46.60;22.25;;;;;;;11.92;27.08;96531.50;4873566;29;20177;-75
2022/03/15 10:13:10;;;;;;;48.47;19.88;;;;;;;11.99;26.60;96534.91;4858297;29;20044;-75
2022/03/15 10:15:36;;;;;;;37.38;20.60;;;;;;;11.99;25.79;96528.88;4873470;29;20417;-74
2022/03/15 10:18:05;;;;;;;35.42;20.60;;;;;;;11.91;25.85;96524.66;4874627;29;20064;-75
2022/03/15 10:20:40;;;;;;;38.58;20.23;;;;;;;11.89;25.77;96521.47;4843163;29;20063;-74
2022/03/15 10:23:05;;;;;;;42.25;21.20;;;;;;;11.84;26.09;96516.00;4873165;29;20045;-75
2022/03/15 10:25:31;;;;;;;38.85;21.52;;;;;;;11.65;26.11;96521.97;4874520;29;20048;-75
2022/03/15 10:27:59;;;;;;;43.00;20.08;;;;;;;11.66;26.36;96513.13;4874662;29;20114;-75
2022/03/15 10:30:26;;;;;;;39.25;16.85;;;;;;;11.69;25.60;96507.53;4874090;29;20074;-75
2022/03/15 10:32:52;;;;;;;53.42;19.50;;;;;;;11.79;25.87;96499.38;4874668;29;20064;-75
2022/03/15 10:35:22;;;;;;;46.70;22.13;;;;;;;11.83;27.03;96485.75;4843039;29;20572;-75
2022/03/15 10:37:54;;;;;;;50.53;24.95;;;;;;;11.85;27.15;96488.16;4874662;29;20411;-75
2022/03/15 10:40:31;;;;;;;44.55;20.70;;;;;;;11.89;27.13;96486.78;4890390;29;20044;-74
2022/03/15 10:43:23;;;;;;;23.88;12.75;;;;;;;11.95;25.09;96481.56;4890371;29;20053;-75
2022/03/15 10:45:56;;;;;;;26.87;13.13;;;;;;;11.96;23.99;96482.34;4890965;29;20072;-75
2022/03/15 10:48:31;;;;;;;29.85;14.27;;;;;;;11.84;24.42;96479.53;4890895;29;20051;-74
2022/03/15 10:51:01;;;;;;;44.50;14.90;;;;;;;11.86;25.31;96472.31;4874296;29;20052;-74
2022/03/15 10:53:39;;;;;;;22.38;8.27;;;;;;;11.83;23.22;96462.28;4891922;29;20045;-75
2022/03/15 10:56:34;;;;;;;11.70;7.80;;;;;;;11.76;23.00;96466.66;4876242;29;20128;-76
2022/03/15 10:59:05;;;;;;;11.40;8.00;;;;;;;11.67;22.80;96460.03;4864272;29;20053;-76
2022/03/15 11:01:39;;;;;;;15.18;10.35;;;;;;;11.51;24.24;96460.38;4875703;29;20049;-76
2022/03/15 11:04:17;;;;;;;20.77;10.85;;;;;;;11.41;24.82;96456.38;4875220;29;20179;-77
2022/03/15 11:06:50;;;;;;;24.25;10.18;;;;;;;11.42;24.84;96449.38;4880142;29;20063;-76
2022/03/15 11:09:17;;;;;;;18.90;8.63;;;;;;;11.46;24.84;96439.34;4896888;29;20056;-78
2022/03/15 11:11:45;;;;;;;13.35;8.10;;;;;;;11.46;24.61;96439.34;4864105;29;20045;-75